Rejestracja

Wszystkie dane podawane są w czasie UTC za wyjątkiem miejsc gdzie jest jednoznacznie podane, że jest inaczej. Dane podawane w serwisie mają charakter informacyjny!!!
Informacje w sprawie dostępu do serwisu pod numerem tel. +48 261-828-138

Aktualna Pogoda
 
Pogoda w Polsce
9°C Szczecin 6°C Suwałki 8°C Warszawa 10°C Poznan
11°C Opole 10°C Kraków 8°C Rzeszów
Więcej miast w Polsce

Pogoda w Europie
9°C Berlin 15°C Paryz 12°C Bruksela 9°C Oslo
12°C Praga 12°C Zagrzeb
Więcej miast w Europie

Metary wojskowe test
METAR EPBC 291100Z 27010KT 9999 BKN025 09/02 Q1015=
METAR EPCE 291100Z 32009KT 280V010 9999 -RA BKN017 06/03 Q1014 RMK 063 078 6/6=
METAR EPDA 291100Z 36008KT 300V030 9999 FEW049 SCT134 08/04 Q1015 RMK 077 080 3/1=
METAR EPDE 291100Z 26014KT 9999 BKN022 08/03 Q1015 RMK 077 074 7/7=
METAR EPIR 291100Z 28010KT 9999 BKN050 11/04 Q1014 RMK 109 060 6/6=
METAR EPKS 291100Z 27014G24KT 6000 SHRA SCT023CB BKN030 BKN080 08/03 Q1015 RMK 082 069 6/3=
METAR EPLK 291100Z 29007KT 9999 BKN020 BKN025 10/03 Q1015 RMK 097 062 7/5=
METAR EPLY 291100Z 28008KT 9999 SCT030 BKN060 10/02 Q1015 RMK 102 056 6/3=
METAR EPMB 291100Z AUTO 31010KT 9999 // VV025 07/04 Q1014 RMK 069 079 ///=
METAR EPMI 291100Z 30006KT 9999 BKN050 08/02 Q1015 RMK 075 070 7/7=
METAR EPMM 291100Z 27012KT 9999 BKN017 07/03 Q1015 RMK 071 076 7/7=
METAR EPOK 291100Z 32010KT 9999 -RA OVC013 06/04 Q1013 RMK 055 091 8/8=
METAR EPPR 291100Z 32002KT 9999 SCT020 BKN040 08/02 Q1014 RMK 079 068 7/4=
METAR EPPW 291100Z 27002KT 9999 BKN040 10/05 Q1014 RMK 101 069 7/7=
METAR EPSN 291100Z 10004KT 9999 BKN030 05/04 Q1015 RMK 053 089 7/7=
METAR EPTM 291100Z 30010KT 9999 BKN030 10/01 Q1015 RMK 095 056 7/7=


 
Informacje ogólne
Pogoda
Warszawa
Temperatura: 7.7°C
Wiatr: 4.0 m/s
Ciśnienie: 1015.5 hPa
Zjawiska: Brak
Temp. max: 7.7 °C
Temp. min: 3.8 °C


Dane astronomiczne
Warszawa:
Dzien: 14:47 h
Noc: 09:13 h


Using HW VSP powered by HW group.

Prawa autorskie©2007 SSH SZ RP. Wszelkie prawa zastrzeżone.